Time;durP1;ratioP1;P1;durP2;ratioP2;P2;SDS_P1;SDS_P2;PMS_P1;PMS_P2;Temp;Humidity;BMP_temperature;BMP_pressure;BME280_temperature;BME280_humidity;BME280_pressure;Samples;Min_cycle;Max_cycle;Signal;HPM_P1;HPM_P2
2024/01/29 00:01:46;;;;;;;21.43;19.80;;;7.90;99.90;;;;;;4979652;28;20226;-68
2024/01/29 00:04:13;;;;;;;21.80;20.10;;;7.90;99.90;;;;;;4976400;28;20278;-66
2024/01/29 00:06:40;;;;;;;20.90;19.30;;;8.10;99.90;;;;;;4976852;28;20210;-67
2024/01/29 00:09:07;;;;;;;21.50;19.87;;;8.20;99.90;;;;;;4979270;28;20198;-67
2024/01/29 00:11:34;;;;;;;21.37;19.77;;;8.10;99.90;;;;;;4965407;28;20252;-68
2024/01/29 00:14:01;;;;;;;22.20;20.20;;;8.30;99.90;;;;;;4983509;28;20186;-69
2024/01/29 00:16:28;;;;;;;21.60;20.00;;;8.50;99.90;;;;;;4961456;28;20233;-69
2024/01/29 00:18:55;;;;;;;21.53;19.87;;;8.40;99.90;;;;;;4965659;28;20206;-68
2024/01/29 00:21:22;;;;;;;21.43;19.83;;;8.70;99.90;;;;;;4976347;28;20578;-68
2024/01/29 00:23:49;;;;;;;21.80;20.10;;;8.90;99.90;;;;;;4965540;28;20285;-67
2024/01/29 00:26:16;;;;;;;21.53;19.87;;;9.30;99.90;;;;;;4966160;28;20197;-68
2024/01/29 00:28:43;;;;;;;21.27;19.63;;;9.10;99.90;;;;;;4983339;28;20194;-68
2024/01/29 00:31:10;;;;;;;21.80;20.00;;;9.10;99.90;;;;;;4961505;28;20214;-67
2024/01/29 00:33:37;;;;;;;21.80;20.10;;;9.00;99.90;;;;;;4986216;28;20194;-68
2024/01/29 00:36:04;;;;;;;21.90;20.10;;;8.70;99.90;;;;;;4976230;28;20202;-68
2024/01/29 00:38:31;;;;;;;21.77;20.07;;;8.60;99.90;;;;;;4976324;28;20276;-70
2024/01/29 00:40:58;;;;;;;21.90;20.20;;;8.20;99.90;;;;;;4983059;28;20276;-69
2024/01/29 00:43:25;;;;;;;21.83;20.13;;;8.10;99.90;;;;;;4983194;28;20240;-67
2024/01/29 00:45:52;;;;;;;21.80;20.10;;;7.80;99.90;;;;;;4965702;28;20284;-67
2024/01/29 00:48:22;;;;;;;21.57;19.87;;;7.60;99.90;;;;;;4985842;28;20200;-68
2024/01/29 00:50:49;;;;;;;22.50;20.70;;;7.30;99.90;;;;;;4983669;28;20202;-68
2024/01/29 00:53:17;;;;;;;22.17;20.47;;;7.20;99.90;;;;;;4978882;28;20245;-68
2024/01/29 00:55:45;;;;;;;21.93;20.23;;;7.00;99.90;;;;;;4984532;28;20244;-67
2024/01/29 00:58:14;;;;;;;21.77;20.17;;;6.80;99.90;;;;;;4983540;28;20204;-66
2024/01/29 01:00:44;;;;;;;21.70;20.00;;;6.80;99.90;;;;;;4969314;28;20198;-68
2024/01/29 01:03:11;;;;;;;22.13;20.23;;;6.70;99.90;;;;;;4985896;28;20202;-68
2024/01/29 01:05:40;;;;;;;21.60;19.90;;;7.00;99.90;;;;;;4980983;28;20210;-68
2024/01/29 01:08:07;;;;;;;21.70;20.00;;;7.80;99.90;;;;;;4981031;28;20284;-67
2024/01/29 01:10:34;;;;;;;21.73;20.03;;;7.90;99.90;;;;;;4982914;28;20771;-68
2024/01/29 01:13:00;;;;;;;21.47;19.77;;;8.10;99.90;;;;;;4983299;28;20236;-69
2024/01/29 01:15:29;;;;;;;21.43;19.83;;;8.40;99.90;;;;;;4982735;28;20194;-68
2024/01/29 01:17:56;;;;;;;21.50;19.90;;;8.20;99.90;;;;;;4984565;28;20690;-68
2024/01/29 01:20:24;;;;;;;21.30;19.70;;;8.00;99.90;;;;;;4984233;28;20201;-69
2024/01/29 01:22:51;;;;;;;21.67;19.97;;;7.90;99.90;;;;;;4980060;28;20213;-67
2024/01/29 01:25:18;;;;;;;21.37;19.67;;;7.70;99.90;;;;;;4969409;28;20209;-69
2024/01/29 01:27:45;;;;;;;21.27;19.67;;;7.50;99.90;;;;;;4981600;28;21175;-68
2024/01/29 01:30:13;;;;;;;22.13;20.47;;;7.30;99.90;;;;;;4986949;28;20564;-68
2024/01/29 01:32:40;;;;;;;21.70;20.00;;;7.10;99.90;;;;;;4968367;28;20790;-68
2024/01/29 01:35:07;;;;;;;21.70;20.10;;;6.90;99.90;;;;;;4984474;28;20202;-69
2024/01/29 01:37:34;;;;;;;21.53;19.83;;;6.60;99.90;;;;;;4983020;28;20228;-69
2024/01/29 01:40:03;;;;;;;21.70;20.00;;;6.30;99.90;;;;;;4982217;28;20288;-69
2024/01/29 01:42:31;;;;;;;21.77;19.97;;;6.10;99.90;;;;;;4982191;28;20190;-68
2024/01/29 01:44:58;;;;;;;21.27;19.60;;;5.90;99.90;;;;;;4987641;28;20551;-69
2024/01/29 01:47:26;;;;;;;21.37;19.77;;;5.70;99.90;;;;;;4986374;28;20563;-68
2024/01/29 01:49:53;;;;;;;21.13;19.53;;;5.40;99.90;;;;;;4966270;28;20565;-67
2024/01/29 01:52:21;;;;;;;21.97;20.27;;;5.10;99.90;;;;;;4961241;28;20189;-67
2024/01/29 01:54:48;;;;;;;21.17;19.57;;;4.90;99.90;;;;;;4980085;28;20329;-67
2024/01/29 01:57:16;;;;;;;21.97;20.27;;;4.80;99.90;;;;;;4986521;28;20190;-69
2024/01/29 01:59:43;;;;;;;21.30;19.60;;;4.70;99.90;;;;;;4985611;28;20240;-67
2024/01/29 02:02:12;;;;;;;21.37;19.67;;;4.50;99.90;;;;;;4986785;28;20280;-66
2024/01/29 02:04:39;;;;;;;21.33;19.67;;;4.50;99.90;;;;;;4981560;28;20872;-67
2024/01/29 02:07:06;;;;;;;24.00;21.60;;;4.50;99.90;;;;;;4981388;28;20217;-68
2024/01/29 02:09:34;;;;;;;23.80;21.60;;;4.50;99.90;;;;;;4979565;28;20711;-68
2024/01/29 02:12:01;;;;;;;22.03;20.20;;;4.40;99.90;;;;;;4982245;28;20213;-69
2024/01/29 02:14:28;;;;;;;22.37;19.60;;;4.40;99.90;;;;;;4979564;28;20428;-67
2024/01/29 02:16:55;;;;;;;21.73;20.03;;;4.30;99.90;;;;;;4964975;28;20256;-68
2024/01/29 02:19:22;;;;;;;21.20;19.60;;;4.20;99.90;;;;;;4982413;28;20413;-68
2024/01/29 02:21:50;;;;;;;20.90;19.30;;;4.10;99.90;;;;;;4984194;28;20629;-68
2024/01/29 02:24:16;;;;;;;21.70;19.80;;;4.10;99.90;;;;;;4981603;28;20205;-68
2024/01/29 02:26:47;;;;;;;22.07;20.17;;;4.20;99.90;;;;;;4973337;28;20675;-69
2024/01/29 02:29:14;;;;;;;21.73;19.60;;;4.20;99.90;;;;;;4979406;28;20260;-68
2024/01/29 02:31:41;;;;;;;20.90;19.40;;;4.20;99.90;;;;;;4982879;28;20450;-69
2024/01/29 02:34:08;;;;;;;21.13;19.53;;;4.20;99.90;;;;;;4985693;28;20228;-66
2024/01/29 02:36:35;;;;;;;21.30;19.70;;;4.40;99.90;;;;;;4982521;28;20201;-68
2024/01/29 02:39:03;;;;;;;21.10;19.50;;;4.50;99.90;;;;;;4981829;28;20499;-68
2024/01/29 02:41:30;;;;;;;21.23;19.53;;;4.70;99.90;;;;;;4984019;28;20193;-63
2024/01/29 02:44:01;;;;;;;20.60;19.10;;;4.60;99.90;;;;;;4983419;28;20305;-61
2024/01/29 02:46:28;;;;;;;21.30;19.67;;;4.50;99.90;;;;;;4967338;28;20262;-62
2024/01/29 02:48:55;;;;;;;21.00;19.10;;;4.40;99.90;;;;;;4979402;28;20236;-62
2024/01/29 02:51:22;;;;;;;21.13;19.53;;;4.20;99.90;;;;;;4978550;28;20218;-68
2024/01/29 02:53:49;;;;;;;20.70;19.10;;;4.00;99.90;;;;;;4975226;28;20339;-67
2024/01/29 02:56:16;;;;;;;20.90;19.40;;;3.90;99.90;;;;;;4965789;28;20190;-68
2024/01/29 02:58:43;;;;;;;20.67;19.17;;;3.80;99.90;;;;;;4985215;28;20733;-69
2024/01/29 03:05:10;;;;;;;21.00;19.40;;;3.70;99.90;;;;;;4977402;28;21018;-69
2024/01/29 03:07:37;;;;;;;20.90;19.30;;;3.60;99.90;;;;;;4978331;28;20324;-69
2024/01/29 03:10:05;;;;;;;20.70;19.10;;;3.70;99.90;;;;;;4967537;28;20229;-67
2024/01/29 03:12:32;;;;;;;20.83;19.23;;;3.70;99.90;;;;;;4980188;28;20217;-70
2024/01/29 03:14:59;;;;;;;21.00;19.30;;;3.70;99.90;;;;;;4981930;28;20197;-69
2024/01/29 03:17:30;;;;;;;20.60;18.97;;;3.70;99.90;;;;;;4966118;28;20599;-69
2024/01/29 03:19:58;;;;;;;21.00;19.30;;;3.70;99.90;;;;;;4979267;28;20213;-68
2024/01/29 03:22:25;;;;;;;20.80;19.30;;;3.70;99.90;;;;;;4963036;28;20275;-67
2024/01/29 03:24:52;;;;;;;20.93;19.33;;;3.70;99.90;;;;;;4964571;28;20205;-67
2024/01/29 03:27:19;;;;;;;21.50;19.70;;;3.60;99.90;;;;;;4985405;28;20206;-69
2024/01/29 03:29:46;;;;;;;21.17;19.50;;;3.60;99.90;;;;;;4981369;28;20296;-69
2024/01/29 03:32:13;;;;;;;21.10;19.40;;;3.50;99.90;;;;;;4991256;28;20646;-67
2024/01/29 03:34:43;;;;;;;21.37;19.43;;;3.50;99.90;;;;;;4965149;28;20202;-70
2024/01/29 03:37:12;;;;;;;21.10;19.50;;;3.40;99.90;;;;;;4990268;28;20193;-69
2024/01/29 03:39:39;;;;;;;21.20;19.50;;;3.30;99.90;;;;;;4953234;28;20663;-70
2024/01/29 03:42:06;;;;;;;20.60;19.07;;;3.30;99.90;;;;;;4973506;28;20296;-70
2024/01/29 03:44:33;;;;;;;20.60;19.07;;;3.30;99.90;;;;;;4986853;28;20831;-69
2024/01/29 03:47:00;;;;;;;20.67;19.07;;;3.30;99.90;;;;;;4985671;28;20554;-69
2024/01/29 03:49:27;;;;;;;20.57;18.97;;;3.20;99.90;;;;;;4977488;28;20476;-68
2024/01/29 03:51:54;;;;;;;20.60;18.90;;;3.20;99.90;;;;;;4984937;28;20209;-68
2024/01/29 03:54:21;;;;;;;21.03;19.00;;;3.20;99.90;;;;;;4962770;28;20245;-68
2024/01/29 03:56:48;;;;;;;20.67;19.00;;;3.10;99.90;;;;;;4961944;28;20677;-67
2024/01/29 03:59:15;;;;;;;20.80;19.03;;;3.10;99.90;;;;;;4950198;28;20298;-67
2024/01/29 04:01:42;;;;;;;21.23;19.50;;;3.10;99.90;;;;;;4966294;28;20198;-64
2024/01/29 04:04:10;;;;;;;21.37;19.57;;;3.10;99.90;;;;;;4981499;28;20713;-62
2024/01/29 04:06:39;;;;;;;21.70;19.90;;;3.00;99.90;;;;;;4959608;28;20663;-64
2024/01/29 04:09:09;;;;;;;21.97;20.23;;;3.00;99.90;;;;;;4959129;28;20403;-63
2024/01/29 04:11:36;;;;;;;22.80;20.90;;;3.00;99.90;;;;;;4963767;28;20214;-62
2024/01/29 04:14:03;;;;;;;22.57;20.57;;;3.00;99.90;;;;;;4961909;28;20769;-62
2024/01/29 04:16:31;;;;;;;22.17;20.40;;;3.00;99.90;;;;;;4964318;28;20225;-64
2024/01/29 04:18:58;;;;;;;21.90;19.70;;;3.10;99.90;;;;;;4967764;28;20303;-66
2024/01/29 04:21:25;;;;;;;22.50;20.50;;;3.10;99.90;;;;;;4966739;28;20190;-64
2024/01/29 04:23:52;;;;;;;22.03;20.13;;;3.10;99.90;;;;;;4969373;28;20283;-63
2024/01/29 04:26:19;;;;;;;20.73;19.13;;;3.00;99.90;;;;;;4966823;28;20559;-62
2024/01/29 04:28:46;;;;;;;21.13;19.33;;;3.00;99.90;;;;;;4968673;28;20198;-61
2024/01/29 04:31:15;;;;;;;20.53;19.00;;;2.90;99.90;;;;;;4966613;28;20239;-62
2024/01/29 04:33:45;;;;;;;21.07;19.47;;;2.90;99.90;;;;;;4970963;28;20191;-63
2024/01/29 04:36:14;;;;;;;21.13;19.33;;;2.80;99.90;;;;;;4961605;28;20334;-63
2024/01/29 04:38:43;;;;;;;20.00;18.50;;;2.80;99.90;;;;;;4962312;28;20261;-62
2024/01/29 04:41:17;;;;;;;20.70;19.10;;;2.70;99.90;;;;;;4966236;28;20222;-63
2024/01/29 04:43:45;;;;;;;21.30;19.50;;;2.70;99.90;;;;;;4970180;28;20202;-63
2024/01/29 04:46:12;;;;;;;20.70;19.00;;;2.60;99.90;;;;;;4965263;28;20251;-63
2024/01/29 04:48:39;;;;;;;20.50;19.00;;;2.60;99.90;;;;;;4966482;28;20667;-62
2024/01/29 04:51:08;;;;;;;20.90;19.20;;;2.60;99.90;;;;;;4970740;28;20218;-63
2024/01/29 04:53:35;;;;;;;21.07;19.50;;;2.50;99.90;;;;;;4961643;28;20727;-63
2024/01/29 04:56:03;;;;;;;21.70;19.97;;;2.50;99.90;;;;;;4971943;28;20554;-63
2024/01/29 04:58:30;;;;;;;21.40;19.57;;;2.50;99.90;;;;;;4978208;28;20261;-62
2024/01/29 05:00:59;;;;;;;21.07;19.30;;;2.50;99.90;;;;;;4989390;28;20197;-62
2024/01/29 05:03:26;;;;;;;20.40;19.00;;;2.50;99.90;;;;;;4988651;28;20654;-62
2024/01/29 05:05:54;;;;;;;20.53;18.97;;;2.60;99.90;;;;;;4980415;28;20510;-62
2024/01/29 05:08:22;;;;;;;21.33;19.63;;;2.50;99.90;;;;;;4981629;28;20657;-61
2024/01/29 05:10:49;;;;;;;20.90;19.30;;;2.50;99.90;;;;;;4985565;28;20619;-61
2024/01/29 05:13:16;;;;;;;21.03;19.30;;;2.50;99.90;;;;;;4968811;28;20196;-60
2024/01/29 05:15:43;;;;;;;20.47;18.97;;;2.40;99.90;;;;;;4985948;28;20309;-61
2024/01/29 05:18:11;;;;;;;21.07;19.43;;;2.40;99.90;;;;;;4988104;28;20208;-61
2024/01/29 05:20:38;;;;;;;21.37;19.77;;;2.40;99.90;;;;;;4980772;28;20189;-62
2024/01/29 05:23:05;;;;;;;21.07;19.47;;;2.40;99.90;;;;;;4986537;28;20213;-62
2024/01/29 05:25:33;;;;;;;20.67;19.07;;;2.40;99.90;;;;;;4986962;28;20194;-62
2024/01/29 05:28:00;;;;;;;20.67;19.17;;;2.40;99.90;;;;;;4990663;28;20223;-62
2024/01/29 05:30:27;;;;;;;21.17;19.57;;;2.40;99.90;;;;;;4986508;28;20246;-61
2024/01/29 05:32:54;;;;;;;21.50;19.87;;;2.30;99.90;;;;;;4988595;28;20221;-64
2024/01/29 05:35:22;;;;;;;22.30;20.50;;;2.30;99.90;;;;;;4983379;28;20198;-64
2024/01/29 05:37:49;;;;;;;22.70;20.80;;;2.30;99.90;;;;;;4988326;28;20281;-63
2024/01/29 05:40:17;;;;;;;22.37;20.53;;;2.20;99.90;;;;;;4986967;28;20205;-64
2024/01/29 05:42:51;;;;;;;24.33;21.80;;;2.20;99.90;;;;;;4969337;28;20220;-64
2024/01/29 05:45:22;;;;;;;28.60;23.50;;;2.20;99.90;;;;;;4992739;28;20209;-66
2024/01/29 05:47:50;;;;;;;24.73;22.23;;;2.10;99.90;;;;;;4983179;28;20191;-62
2024/01/29 05:50:17;;;;;;;26.20;21.77;;;2.10;99.90;;;;;;4983959;28;20194;-61
2024/01/29 05:52:44;;;;;;;26.90;21.77;;;2.10;99.90;;;;;;4986936;28;20220;-61
2024/01/29 05:55:11;;;;;;;24.03;21.73;;;2.10;99.90;;;;;;4981503;28;20637;-61
2024/01/29 05:57:38;;;;;;;23.80;21.60;;;2.00;99.90;;;;;;4983859;28;20299;-61
2024/01/29 06:00:10;;;;;;;23.73;21.50;;;2.00;99.90;;;;;;4970951;28;20537;-60
2024/01/29 06:02:43;;;;;;;23.07;21.10;;;2.00;99.90;;;;;;4990807;28;20919;-61
2024/01/29 06:05:11;;;;;;;23.30;21.13;;;1.90;99.90;;;;;;4968970;28;20644;-61
2024/01/29 06:07:41;;;;;;;24.97;22.57;;;1.90;99.90;;;;;;4975301;28;20220;-65
2024/01/29 06:10:12;;;;;;;24.10;22.07;;;1.90;99.90;;;;;;4965390;28;20206;-61
2024/01/29 06:12:39;;;;;;;24.20;21.97;;;1.90;99.90;;;;;;4989384;28;20288;-67
2024/01/29 06:15:07;;;;;;;23.40;21.30;;;1.80;99.90;;;;;;4976774;28;20209;-67
2024/01/29 06:17:34;;;;;;;23.67;21.43;;;1.80;99.90;;;;;;4989214;28;20245;-67
2024/01/29 06:20:02;;;;;;;24.10;21.63;;;1.80;99.90;;;;;;4980794;28;20623;-67
2024/01/29 06:22:44;;;;;;;22.20;20.23;;;1.80;99.90;;;;;;4983685;28;20202;-68
2024/01/29 06:25:10;;;;;;;22.90;20.40;;;1.80;99.90;;;;;;4971126;28;20240;-67
2024/01/29 06:27:38;;;;;;;22.00;20.10;;;1.80;99.90;;;;;;4988495;28;20189;-66
2024/01/29 06:30:06;;;;;;;21.77;19.87;;;1.70;99.90;;;;;;4991446;28;20728;-67
2024/01/29 06:32:33;;;;;;;21.27;19.53;;;1.70;99.90;;;;;;5003569;28;20206;-67
2024/01/29 06:35:00;;;;;;;20.87;19.07;;;1.60;99.90;;;;;;4969454;28;20204;-68
2024/01/29 06:37:27;;;;;;;21.83;19.93;;;1.60;99.90;;;;;;4970582;28;20197;-65
2024/01/29 06:39:54;;;;;;;20.70;19.20;;;1.60;99.90;;;;;;4972190;28;20529;-69
2024/01/29 06:42:21;;;;;;;19.70;18.30;;;1.60;99.90;;;;;;4975769;28;20748;-68
2024/01/29 06:44:48;;;;;;;20.33;18.73;;;1.60;99.90;;;;;;4969976;28;20193;-70
2024/01/29 06:47:17;;;;;;;21.20;19.50;;;1.50;99.90;;;;;;4987723;28;20189;-68
2024/01/29 06:49:45;;;;;;;21.77;19.80;;;1.50;99.90;;;;;;4987976;28;20613;-68
2024/01/29 06:52:12;;;;;;;21.80;19.70;;;1.50;99.90;;;;;;4988446;28;20932;-69
2024/01/29 06:54:44;;;;;;;22.17;20.37;;;1.50;99.90;;;;;;4982655;28;20523;-70
2024/01/29 06:57:11;;;;;;;22.73;20.80;;;1.40;99.90;;;;;;4962471;28;20257;-69
2024/01/29 06:59:38;;;;;;;22.00;20.30;;;1.40;99.90;;;;;;4969940;28;20194;-69
2024/01/29 07:02:07;;;;;;;21.73;20.00;;;1.40;99.90;;;;;;4988135;28;20667;-70
2024/01/29 07:04:34;;;;;;;29.30;24.00;;;1.40;99.90;;;;;;4944968;28;20644;-68
2024/01/29 07:07:01;;;;;;;37.83;26.70;;;1.50;99.90;;;;;;4984404;28;20198;-69
2024/01/29 07:09:29;;;;;;;39.07;27.30;;;1.50;99.90;;;;;;4969927;28;20193;-68
2024/01/29 07:11:57;;;;;;;29.67;24.73;;;1.50;99.90;;;;;;4954345;28;20221;-69
2024/01/29 07:14:25;;;;;;;27.10;22.77;;;1.50;99.90;;;;;;4975662;28;20419;-69
2024/01/29 07:16:52;;;;;;;24.23;21.73;;;1.50;99.90;;;;;;4986885;28;20616;-68
2024/01/29 07:19:25;;;;;;;26.60;22.17;;;1.60;99.90;;;;;;4951697;28;20597;-67
2024/01/29 07:21:53;;;;;;;27.97;21.27;;;1.60;99.90;;;;;;4944565;28;20262;-64
2024/01/29 07:24:20;;;;;;;23.80;21.70;;;1.60;99.90;;;;;;4987335;28;20202;-63
2024/01/29 07:26:48;;;;;;;27.47;23.03;;;1.70;99.90;;;;;;4966807;28;20336;-61
2024/01/29 07:29:14;;;;;;;26.50;22.40;;;1.80;99.90;;;;;;4983339;28;20272;-61
2024/01/29 07:31:41;;;;;;;25.40;22.73;;;1.80;99.90;;;;;;4969195;28;20301;-61
2024/01/29 07:34:09;;;;;;;26.33;22.80;;;1.90;99.90;;;;;;4969360;28;20197;-64
2024/01/29 07:36:39;;;;;;;26.47;23.80;;;2.00;99.90;;;;;;4987267;28;20584;-63
2024/01/29 07:39:06;;;;;;;30.00;22.73;;;2.10;99.90;;;;;;4980315;28;20289;-61
2024/01/29 07:41:33;;;;;;;28.77;24.50;;;2.20;99.90;;;;;;4964533;28;20260;-62
2024/01/29 07:43:59;;;;;;;28.57;23.10;;;2.30;99.90;;;;;;4979174;28;20198;-62
2024/01/29 07:46:27;;;;;;;26.07;23.10;;;2.40;99.90;;;;;;4982430;28;20394;-61
2024/01/29 07:48:54;;;;;;;27.03;22.90;;;2.40;99.90;;;;;;4987529;28;20190;-61
2024/01/29 07:51:21;;;;;;;32.13;24.13;;;2.50;99.90;;;;;;4981476;28;20189;-61
2024/01/29 07:53:48;;;;;;;36.80;22.80;;;2.60;99.90;;;;;;4983324;28;20232;-62
2024/01/29 07:56:15;;;;;;;54.90;31.57;;;2.70;99.90;;;;;;4985805;28;20344;-61
2024/01/29 07:58:42;;;;;;;61.87;32.33;;;2.80;99.90;;;;;;4967409;28;20264;-63
2024/01/29 08:01:09;;;;;;;36.47;26.83;;;2.90;99.90;;;;;;4986133;28;20190;-62
2024/01/29 08:03:36;;;;;;;29.67;22.47;;;3.00;99.90;;;;;;4990922;28;20222;-61
2024/01/29 08:06:03;;;;;;;21.87;19.87;;;3.10;99.90;;;;;;4980423;28;20192;-61
2024/01/29 08:08:31;;;;;;;22.80;20.50;;;3.10;99.90;;;;;;4988938;28;20621;-61
2024/01/29 08:11:00;;;;;;;23.73;21.07;;;3.20;99.90;;;;;;4980113;28;20569;-63
2024/01/29 08:13:27;;;;;;;28.03;22.60;;;3.30;99.90;;;;;;4973074;28;20957;-61
2024/01/29 08:15:55;;;;;;;23.17;20.93;;;3.30;99.90;;;;;;4993720;28;20587;-63
2024/01/29 08:18:22;;;;;;;23.20;20.83;;;3.40;99.90;;;;;;4990062;28;20196;-63
2024/01/29 08:20:49;;;;;;;21.97;20.00;;;3.50;99.90;;;;;;4972271;28;20698;-62
2024/01/29 08:23:17;;;;;;;21.43;19.73;;;3.60;99.90;;;;;;4955067;28;20217;-64
2024/01/29 08:25:44;;;;;;;23.23;21.03;;;3.70;99.90;;;;;;4982819;28;20201;-63
2024/01/29 08:28:11;;;;;;;23.00;20.63;;;3.70;99.90;;;;;;4981489;28;20513;-64
2024/01/29 08:30:38;;;;;;;23.93;21.37;;;3.80;99.90;;;;;;4985956;28;20193;-64
2024/01/29 08:33:05;;;;;;;27.77;21.87;;;4.00;99.90;;;;;;4981401;28;20211;-61
2024/01/29 08:35:32;;;;;;;24.80;22.27;;;4.00;99.90;;;;;;4984004;28;20209;-64
2024/01/29 08:37:59;;;;;;;23.77;21.33;;;4.10;99.90;;;;;;4970696;28;20682;-73
2024/01/29 08:40:28;;;;;;;23.87;21.37;;;4.20;99.90;;;;;;4987295;28;20224;-63
2024/01/29 08:42:55;;;;;;;23.17;21.03;;;4.30;99.90;;;;;;4981828;28;20210;-63
2024/01/29 08:45:22;;;;;;;24.23;21.83;;;4.30;99.90;;;;;;4956123;28;20297;-63
2024/01/29 08:47:49;;;;;;;23.60;21.40;;;4.40;99.90;;;;;;4986533;28;20619;-63
2024/01/29 08:50:16;;;;;;;24.97;22.40;;;4.50;99.90;;;;;;4984237;28;20576;-63
2024/01/29 08:52:43;;;;;;;23.33;20.97;;;4.60;99.90;;;;;;4964007;28;20549;-61
2024/01/29 08:55:11;;;;;;;24.20;21.87;;;4.80;99.90;;;;;;4988648;28;20681;-62
2024/01/29 08:57:38;;;;;;;23.43;21.30;;;4.80;99.90;;;;;;4988409;28;20581;-62
2024/01/29 09:00:06;;;;;;;24.43;21.93;;;4.90;99.90;;;;;;4970917;28;20201;-63
2024/01/29 09:02:34;;;;;;;23.23;20.83;;;5.00;99.90;;;;;;4991284;28;20194;-61
2024/01/29 09:05:01;;;;;;;22.73;20.40;;;5.20;99.90;;;;;;4976372;28;20214;-64
2024/01/29 09:07:28;;;;;;;21.83;19.93;;;5.60;99.90;;;;;;4982110;28;20190;-61
2024/01/29 09:09:55;;;;;;;21.53;19.70;;;5.90;99.90;;;;;;4987479;28;20438;-61
2024/01/29 09:12:22;;;;;;;21.17;18.97;;;6.30;99.90;;;;;;4981432;28;20249;-61
2024/01/29 09:14:49;;;;;;;20.53;18.73;;;6.70;99.90;;;;;;4965265;28;20197;-61
2024/01/29 09:17:16;;;;;;;20.47;18.77;;;7.20;99.90;;;;;;4983905;28;20226;-80
2024/01/29 09:19:46;;;;;;;20.97;18.73;;;7.50;99.90;;;;;;4970967;28;20194;-61
2024/01/29 09:22:13;;;;;;;18.97;17.53;;;7.80;99.90;;;;;;4970733;28;20736;-62
2024/01/29 09:24:40;;;;;;;18.20;16.90;;;8.30;99.90;;;;;;4981131;28;20702;-66
2024/01/29 09:27:07;;;;;;;19.03;17.53;;;8.90;99.90;;;;;;4987158;28;20287;-64
2024/01/29 09:29:34;;;;;;;20.03;18.33;;;13.10;99.90;;;;;;4963892;28;20198;-63
2024/01/29 09:32:01;;;;;;;20.13;18.63;;;15.50;99.90;;;;;;4986095;28;20269;-64
2024/01/29 09:34:28;;;;;;;21.17;19.38;;;17.30;99.90;;;;;;4968896;28;20229;-65
2024/01/29 09:36:55;;;;;;;21.45;19.55;;;17.50;99.90;;;;;;4982653;28;20689;-65
2024/01/29 09:39:26;;;;;;;22.35;20.25;;;17.60;99.90;;;;;;4968214;28;20237;-63
2024/01/29 09:42:02;;;;;;;21.85;20.15;;;18.00;99.90;;;;;;4976950;28;20200;-69
2024/01/29 09:44:38;;;;;;;22.65;20.45;;;18.00;99.90;;;;;;4983179;28;20222;-69
2024/01/29 09:47:06;;;;;;;22.52;20.42;;;18.00;99.90;;;;;;4985147;28;20284;-70
2024/01/29 09:49:37;;;;;;;22.33;20.52;;;18.50;99.90;;;;;;4988463;28;20297;-68
2024/01/29 09:52:08;;;;;;;22.27;20.48;;;18.40;99.90;;;;;;4984847;28;20198;-63
2024/01/29 09:54:36;;;;;;;22.20;20.40;;;18.50;99.90;;;;;;4985075;28;20645;-63
2024/01/29 09:57:03;;;;;;;23.08;21.17;;;18.90;99.90;;;;;;4987220;28;20272;-64
2024/01/29 09:59:32;;;;;;;22.88;20.95;;;20.60;99.90;;;;;;4987802;28;20272;-63
2024/01/29 10:02:00;;;;;;;22.67;20.67;;;19.90;99.90;;;;;;4988688;28;20256;-65
2024/01/29 10:04:28;;;;;;;22.88;20.98;;;19.70;99.90;;;;;;4987028;28;20271;-63
2024/01/29 10:06:55;;;;;;;22.55;20.58;;;19.20;99.90;;;;;;4976516;28;20340;-69
2024/01/29 10:09:22;;;;;;;23.17;21.13;;;19.60;99.90;;;;;;4967445;28;20487;-64
2024/01/29 10:11:50;;;;;;;22.58;20.67;;;19.10;99.90;;;;;;4983448;28;20617;-63
2024/01/29 10:14:17;;;;;;;23.83;21.67;;;18.30;99.90;;;;;;4978007;28;20218;-73
2024/01/29 10:16:44;;;;;;;23.60;21.50;;;19.50;99.90;;;;;;4981007;28;20568;-63
2024/01/29 10:19:12;;;;;;;23.40;21.40;;;20.30;99.90;;;;;;4987283;28;20197;-64
2024/01/29 10:21:43;;;;;;;22.65;20.85;;;21.40;99.90;;;;;;4977935;28;20325;-64
2024/01/29 10:24:17;;;;;;;23.45;21.45;;;22.30;99.90;;;;;;4984654;28;20746;-68
2024/01/29 10:26:45;;;;;;;23.65;21.45;;;23.00;99.90;;;;;;4990668;28;20377;-64
2024/01/29 10:29:12;;;;;;;24.33;21.77;;;22.20;99.90;;;;;;4984286;28;20551;-64
2024/01/29 10:31:41;;;;;;;23.30;21.40;;;23.10;99.90;;;;;;4986785;28;20253;-63
2024/01/29 10:34:08;;;;;;;23.65;21.48;;;23.50;99.90;;;;;;4979547;28;20313;-65
2024/01/29 10:36:47;;;;;;;23.90;21.85;;;26.10;99.90;;;;;;5122385;27;20283;-64
2024/01/29 10:39:17;;;;;;;23.73;21.60;;;24.80;99.90;;;;;;5063213;28;20800;-62
2024/01/29 10:41:45;;;;;;;23.42;21.42;;;23.20;99.90;;;;;;5084541;28;20677;-63
2024/01/29 10:44:16;;;;;;;23.92;21.90;;;23.00;99.90;;;;;;5080432;28;20202;-64
2024/01/29 10:46:46;;;;;;;24.08;21.88;;;21.80;99.90;;;;;;5099465;28;20205;-64
2024/01/29 10:49:14;;;;;;;23.83;21.80;;;21.50;99.90;;;;;;5079623;28;20613;-64
2024/01/29 10:51:44;;;;;;;23.80;21.83;;;22.70;99.90;;;;;;5066381;28;20339;-70
2024/01/29 10:54:13;;;;;;;24.40;22.27;;;22.70;99.90;;;;;;5100437;28;20327;-69
2024/01/29 10:56:42;;;;;;;24.30;22.20;;;23.70;99.90;;;;;;5085280;28;20733;-69
2024/01/29 10:59:12;;;;;;;24.02;21.88;;;24.00;99.90;;;;;;5079140;28;20642;-70
2024/01/29 11:01:40;;;;;;;23.25;21.35;;;22.30;99.90;;;;;;5092046;28;20349;-70
2024/01/29 11:04:19;;;;;;;23.73;21.73;;;21.50;99.90;;;;;;5103444;28;20196;-70
2024/01/29 11:07:12;;;;;;;24.23;22.00;;;22.00;99.90;;;;;;5075356;28;20532;-70
2024/01/29 11:10:03;;;;;;;23.88;21.63;;;22.60;99.90;;;;;;5100591;28;20217;-70
2024/01/29 11:12:32;;;;;;;23.52;21.60;;;21.60;99.90;;;;;;5088355;28;20690;-69
2024/01/29 11:15:06;;;;;;;23.42;21.45;;;22.20;99.90;;;;;;5077710;28;20225;-76
2024/01/29 11:17:33;;;;;;;24.38;22.17;;;20.80;99.90;;;;;;5084871;28;20211;-71
2024/01/29 11:20:12;;;;;;;23.35;21.15;;;20.50;99.90;;;;;;5100848;28;20541;-69
2024/01/29 11:22:41;;;;;;;23.65;21.65;;;21.20;99.90;;;;;;5092067;28;20216;-68
2024/01/29 11:25:18;;;;;;;23.90;21.80;;;21.60;99.90;;;;;;5099772;28;20201;-70
2024/01/29 11:27:47;;;;;;;22.92;21.08;;;22.80;99.90;;;;;;5107859;28;20910;-69
2024/01/29 11:30:25;;;;;;;23.45;21.58;;;22.40;99.90;;;;;;5097890;28;20870;-70
2024/01/29 11:33:14;;;;;;;24.80;22.73;;;23.00;99.90;;;;;;5071652;28;20274;-70
2024/01/29 11:35:42;;;;;;;23.90;21.77;;;22.80;99.90;;;;;;5080857;28;20307;-69
2024/01/29 11:38:14;;;;;;;24.38;21.95;;;24.20;99.90;;;;;;5061682;28;20187;-70
2024/01/29 11:40:42;;;;;;;24.02;21.83;;;22.30;99.90;;;;;;5053770;28;20605;-69
2024/01/29 11:43:21;;;;;;;24.23;22.05;;;21.90;99.90;;;;;;5081591;28;20244;-69
2024/01/29 11:45:49;;;;;;;24.13;22.02;;;22.30;99.90;;;;;;5062944;28;20203;-70
2024/01/29 11:48:18;;;;;;;24.35;22.25;;;22.70;99.90;;;;;;5042561;28;20195;-69
2024/01/29 11:50:51;;;;;;;23.98;21.92;;;22.50;99.90;;;;;;5069057;28;20594;-71
2024/01/29 11:53:21;;;;;;;23.77;21.67;;;22.00;99.90;;;;;;5067341;28;20736;-69
2024/01/29 11:55:48;;;;;;;24.05;21.73;;;21.20;99.90;;;;;;5062782;28;20211;-70
2024/01/29 11:58:23;;;;;;;23.17;21.27;;;20.40;99.90;;;;;;5048715;28;20211;-68
2024/01/29 12:00:51;;;;;;;24.20;22.02;;;20.80;99.90;;;;;;5060216;28;20689;-69
2024/01/29 12:03:27;;;;;;;24.55;22.42;;;21.20;99.90;;;;;;5047611;28;20671;-64
2024/01/29 12:05:54;;;;;;;25.65;23.15;;;21.40;99.90;;;;;;5054786;28;20225;-63
2024/01/29 12:08:26;;;;;;;24.58;22.40;;;22.40;99.90;;;;;;5065881;28;20202;-64
2024/01/29 12:11:01;;;;;;;24.90;22.80;;;21.70;99.90;;;;;;5040319;28;20604;-70
2024/01/29 12:13:29;;;;;;;23.85;21.70;;;22.10;99.90;;;;;;5029173;28;20293;-63
2024/01/29 12:15:58;;;;;;;24.00;21.90;;;19.90;99.90;;;;;;5055099;28;20242;-63
2024/01/29 12:18:27;;;;;;;23.55;21.55;;;20.20;99.90;;;;;;5050811;28;20191;-63
2024/01/29 12:20:55;;;;;;;23.60;21.60;;;20.30;99.90;;;;;;5035841;28;20528;-63
2024/01/29 12:23:23;;;;;;;23.17;21.23;;;19.20;99.90;;;;;;5055071;28;20241;-62
2024/01/29 12:25:55;;;;;;;23.83;21.75;;;18.60;99.90;;;;;;5062413;28;20468;-65
2024/01/29 12:28:25;;;;;;;23.42;21.50;;;18.70;99.90;;;;;;5044894;28;20218;-64
2024/01/29 12:30:53;;;;;;;23.80;21.70;;;19.00;99.90;;;;;;5066285;28;20626;-63
2024/01/29 12:33:28;;;;;;;23.67;21.58;;;19.90;99.90;;;;;;5054925;28;20309;-65
2024/01/29 12:36:11;;;;;;;23.52;21.33;;;20.60;99.90;;;;;;5066858;28;20233;-63
2024/01/29 12:38:40;;;;;;;23.83;21.83;;;19.50;99.90;;;;;;5029271;28;20613;-63
2024/01/29 12:41:07;;;;;;;23.67;21.58;;;19.00;99.90;;;;;;5065140;28;20212;-63
2024/01/29 12:43:34;;;;;;;23.80;21.80;;;19.10;99.90;;;;;;5067280;28;20293;-63